Wetterdaten: Woche 27.05.13 - 02.06.13 (KW22)
Datum Zeit Temp. A. Feuchte A. Luftdruck Regen Wind Richtung Taupunkt Windchill Windben
27.05.2013 00:00 9,3 C 69 % 1009,0 hPa 0,0 l/m 4,6 km/h N 3,9 C 9,3 C 26,6 km/h
27.05.2013 01:00 8,9 C 72 % 1008,7 hPa 0,0 l/m 1,4 km/h N 4,1 C 8,9 C 10,1 km/h
27.05.2013 02:00 8,8 C 73 % 1008,3 hPa 0,0 l/m 1,6 km/h N 4,2 C 8,8 C 16,5 km/h
27.05.2013 03:00 8,6 C 73 % 1007,9 hPa 0,0 l/m 4,1 km/h N 4,0 C 8,5 C 19,7 km/h
27.05.2013 04:00 8,3 C 73 % 1007,5 hPa 0,0 l/m 7,3 km/h N 3,8 C 7,5 C 25,8 km/h
27.05.2013 05:00 8,5 C 73 % 1007,4 hPa 0,0 l/m 5,6 km/h N 3,9 C 8,1 C 22,1 km/h
27.05.2013 06:00 8,6 C 74 % 1007,5 hPa 0,0 l/m 5,9 km/h N 4,2 C 8,5 C 27,0 km/h
27.05.2013 07:00 8,8 C 74 % 1007,7 hPa 0,0 l/m 6,9 km/h N 4,3 C 8,0 C 33,4 km/h
27.05.2013 08:00 9,3 C 73 % 1007,9 hPa 0,0 l/m 10,4 km/h N 4,6 C 6,6 C 33,4 km/h
27.05.2013 09:00 9,6 C 75 % 1008,2 hPa 0,0 l/m 8,8 km/h N 5,3 C 7,9 C 29,4 km/h
27.05.2013 10:00 10,4 C 72 % 1008,6 hPa 0,0 l/m 10,3 km/h N 5,5 C 7,9 C 35,4 km/h
27.05.2013 11:00 11,3 C 67 % 1008,8 hPa 0,0 l/m 13,3 km/h N 5,5 C 7,4 C 36,6 km/h
27.05.2013 12:00 11,9 C 65 % 1009,1 hPa 0,0 l/m 11,4 km/h N 5,5 C 9,0 C 39,0 km/h
27.05.2013 13:00 11,8 C 65 % 1009,2 hPa 0,0 l/m 9,5 km/h N 5,5 C 9,9 C 34,2 km/h
27.05.2013 14:00 11,3 C 67 % 1009,5 hPa 0,0 l/m 11,2 km/h N 5,5 C 8,4 C 33,8 km/h
27.05.2013 15:00 10,9 C 71 % 1009,4 hPa 0,0 l/m 10,5 km/h N 5,9 C 8,3 C 36,2 km/h
27.05.2013 16:00 11,4 C 70 % 1009,3 hPa 0,0 l/m 10,1 km/h N 6,1 C 9,2 C 32,6 km/h
27.05.2013 17:00 11,8 C 70 % 1009,2 hPa 0,0 l/m 10,3 km/h N 6,4 C 9,4 C 32,2 km/h
27.05.2013 18:00 11,8 C 69 % 1009,3 hPa 0,0 l/m 9,2 km/h N 6,3 C 10,2 C 32,2 km/h
27.05.2013 19:00 12,1 C 68 % 1009,3 hPa 0,0 l/m 11,7 km/h N 6,3 C 9,1 C 30,5 km/h
27.05.2013 20:00 11,3 C 71 % 1009,5 hPa 0,0 l/m 10,3 km/h N 6,3 C 9,0 C 29,4 km/h
27.05.2013 21:00 11,1 C 75 % 1009,8 hPa 0,0 l/m 7,4 km/h N 6,7 C 10,4 C 27,8 km/h
27.05.2013 22:00 11,1 C 74 % 1009,7 hPa 0,0 l/m 6,5 km/h N 6,7 C 10,5 C 22,1 km/h
27.05.2013 23:00 10,7 C 79 % 1009,8 hPa 0,0 l/m 5,8 km/h N 7,2 C 10,7 C 21,3 km/h
28.05.2013 00:00 10,6 C 81 % 1009,7 hPa 0,0 l/m 3,7 km/h N 7,5 C 10,6 C 17,7 km/h
28.05.2013 01:00 10,5 C 82 % 1009,2 hPa 0,0 l/m 0,3 km/h N 7,5 C 10,5 C 5,2 km/h
28.05.2013 02:00 10,3 C 82 % 1008,9 hPa 0,0 l/m 0,2 km/h N 7,3 C 10,3 C 3,2 km/h
28.05.2013 03:00 9,7 C 82 % 1008,3 hPa 0,0 l/m 0,0 km/h N 6,8 C 9,7 C 2,0 km/h
28.05.2013 04:00 8,9 C 84 % 1008,2 hPa 0,0 l/m 0,1 km/h N 6,3 C 8,9 C 3,2 km/h
28.05.2013 05:00 8,9 C 84 % 1008,0 hPa 0,0 l/m 0,0 km/h N 6,3 C 8,9 C 0,0 km/h
28.05.2013 06:00 9,4 C 83 % 1007,7 hPa 0,0 l/m 0,0 km/h N 6,6 C 9,4 C 0,0 km/h
28.05.2013 07:00 10,6 C 83 % 1007,5 hPa 0,0 l/m 0,4 km/h N 7,8 C 10,6 C 3,2 km/h
28.05.2013 08:00 12,2 C 80 % 1007,3 hPa 0,0 l/m 0,8 km/h N 8,9 C 12,2 C 5,2 km/h
28.05.2013 09:00 14,4 C 73 % 1006,9 hPa 0,0 l/m 0,7 km/h N 9,6 C 14,4 C 5,6 km/h
28.05.2013 10:00 17,0 C 67 % 1006,2 hPa 0,0 l/m 0,9 km/h N 10,8 C 17,0 C 6,0 km/h
28.05.2013 11:00 17,5 C 66 % 1005,7 hPa 0,0 l/m 1,1 km/h N 11,0 C 17,5 C 8,0 km/h
28.05.2013 12:00 18,2 C 62 % 1005,2 hPa 0,0 l/m 1,0 km/h N 10,8 C 18,2 C 6,4 km/h
28.05.2013 13:00 20,1 C 57 % 1004,7 hPa 0,0 l/m 2,2 km/h N 11,3 C 20,1 C 10,1 km/h
28.05.2013 14:00 21,3 C 53 % 1003,9 hPa 0,0 l/m 1,8 km/h N 11,2 C 21,3 C 12,1 km/h
28.05.2013 15:00 21,3 C 53 % 1003,0 hPa 0,0 l/m 2,3 km/h N 11,4 C 21,3 C 11,7 km/h
28.05.2013 16:00 20,5 C 57 % 1002,8 hPa 0,0 l/m 6,4 km/h N 11,5 C 20,1 C 21,7 km/h
28.05.2013 17:00 19,4 C 57 % 1002,4 hPa 0,0 l/m 9,3 km/h N 10,7 C 18,3 C 23,7 km/h
28.05.2013 18:00 18,1 C 62 % 1002,2 hPa 0,0 l/m 7,7 km/h N 10,8 C 17,6 C 21,3 km/h
28.05.2013 19:00 17,9 C 65 % 1001,7 hPa 0,0 l/m 7,4 km/h N 11,1 C 17,4 C 21,3 km/h
28.05.2013 20:00 16,7 C 64 % 1001,4 hPa 0,0 l/m 5,0 km/h N 9,9 C 16,6 C 15,3 km/h
28.05.2013 21:00 15,0 C 71 % 1001,5 hPa 0,0 l/m 2,2 km/h N 9,7 C 15,0 C 8,9 km/h
28.05.2013 22:00 13,9 C 77 % 1001,4 hPa 0,0 l/m 2,4 km/h N 9,9 C 13,9 C 8,9 km/h
28.05.2013 23:00 13,1 C 79 % 1001,2 hPa 0,0 l/m 1,0 km/h N 9,6 C 13,1 C 6,0 km/h
29.05.2013 00:00 12,3 C 81 % 1000,7 hPa 0,0 l/m 1,8 km/h N 9,1 C 12,3 C 6,0 km/h
29.05.2013 01:00 11,6 C 81 % 1000,4 hPa 0,0 l/m 0,1 km/h N 8,4 C 11,6 C 1,6 km/h
29.05.2013 02:00 10,1 C 83 % 1000,3 hPa 0,0 l/m 0,0 km/h N 7,4 C 10,1 C 0,4 km/h
29.05.2013 03:00 8,8 C 84 % 1000,0 hPa 0,0 l/m 0,0 km/h N 6,2 C 8,8 C 0,0 km/h
29.05.2013 04:00 7,8 C 84 % 999,9 hPa 0,0 l/m 0,0 km/h N 5,2 C 7,8 C 0,0 km/h
29.05.2013 05:00 8,9 C 81 % 999,8 hPa 0,0 l/m 0,0 km/h N 5,8 C 8,9 C 0,0 km/h
29.05.2013 06:00 10,4 C 79 % 999,7 hPa 0,0 l/m 0,1 km/h N 6,9 C 10,4 C 2,0 km/h
29.05.2013 07:00 10,9 C 79 % 999,8 hPa 0,0 l/m 0,4 km/h N 7,4 C 10,9 C 4,4 km/h
29.05.2013 08:00 13,3 C 80 % 999,8 hPa 0,0 l/m 2,2 km/h N 9,9 C 13,3 C 9,6 km/h
29.05.2013 09:00 16,2 C 73 % 999,7 hPa 0,0 l/m 3,3 km/h N 11,4 C 16,2 C 12,5 km/h
29.05.2013 10:00 19,2 C 65 % 999,4 hPa 0,0 l/m 1,9 km/h N 12,5 C 19,2 C 11,3 km/h
29.05.2013 11:00 21,2 C 53 % 998,8 hPa 0,0 l/m 10,4 km/h N 11,3 C 19,9 C 25,8 km/h
29.05.2013 12:00 21,9 C 51 % 998,7 hPa 0,0 l/m 13,4 km/h N 11,2 C 19,9 C 31,0 km/h
29.05.2013 13:00 23,3 C 47 % 998,6 hPa 0,0 l/m 11,9 km/h N 11,3 C 21,9 C 32,2 km/h
29.05.2013 14:00 23,7 C 45 % 998,4 hPa 0,0 l/m 11,9 km/h N 11,1 C 22,4 C 31,8 km/h
29.05.2013 15:00 23,1 C 45 % 998,4 hPa 0,0 l/m 10,8 km/h N 10,4 C 21,9 C 29,4 km/h
29.05.2013 16:00 22,1 C 50 % 998,8 hPa 0,0 l/m 9,2 km/h N 11,0 C 21,2 C 22,9 km/h
29.05.2013 17:00 22,2 C 48 % 998,9 hPa 0,0 l/m 5,2 km/h N 10,7 C 22,2 C 16,9 km/h
29.05.2013 18:00 21,4 C 51 % 999,3 hPa 0,0 l/m 5,9 km/h N 10,8 C 21,3 C 18,9 km/h
29.05.2013 19:00 20,2 C 56 % 1000,2 hPa 0,0 l/m 4,7 km/h N 11,0 C 20,0 C 15,3 km/h
29.05.2013 20:00 14,9 C 70 % 1001,2 hPa 0,0 l/m 6,5 km/h N 9,4 C 14,6 C 19,7 km/h
29.05.2013 21:00 12,6 C 72 % 1002,2 hPa 0,0 l/m 7,0 km/h N 7,7 C 12,2 C 21,7 km/h
29.05.2013 22:00 11,6 C 72 % 1002,7 hPa 0,0 l/m 9,1 km/h N 6,8 C 9,9 C 24,9 km/h
29.05.2013 23:00 11,3 C 71 % 1003,2 hPa 0,0 l/m 8,7 km/h N 6,2 C 9,8 C 30,6 km/h
30.05.2013 00:00 11,0 C 70 % 1003,3 hPa 0,0 l/m 5,0 km/h N 5,7 C 10,4 C 19,3 km/h
30.05.2013 01:00 10,8 C 71 % 1003,3 hPa 0,0 l/m 2,5 km/h N 5,7 C 10,8 C 15,3 km/h
30.05.2013 02:00 10,7 C 73 % 1003,2 hPa 0,0 l/m 0,6 km/h N 6,0 C 10,7 C 6,4 km/h
30.05.2013 03:00 10,6 C 74 % 1003,0 hPa 0,0 l/m 1,0 km/h N 6,2 C 10,6 C 8,8 km/h
30.05.2013 04:00 10,7 C 74 % 1003,0 hPa 0,0 l/m 1,0 km/h N 6,3 C 10,7 C 6,9 km/h
30.05.2013 05:00 10,9 C 74 % 1002,7 hPa 0,0 l/m 1,4 km/h N 6,5 C 10,9 C 10,1 km/h
30.05.2013 06:00 11,7 C 72 % 1002,1 hPa 0,0 l/m 7,4 km/h N 6,8 C 11,0 C 22,5 km/h
30.05.2013 07:00 12,1 C 72 % 1001,9 hPa 0,0 l/m 11,7 km/h N 7,2 C 9,1 C 31,4 km/h
30.05.2013 08:00 12,8 C 69 % 1001,6 hPa 0,0 l/m 14,1 km/h N 7,3 C 8,9 C 35,8 km/h
30.05.2013 09:00 13,4 C 69 % 1001,6 hPa 0,0 l/m 11,2 km/h N 7,7 C 10,7 C 29,4 km/h
30.05.2013 10:00 13,6 C 68 % 1001,0 hPa 0,0 l/m 12,3 km/h N 7,9 C 10,6 C 29,8 km/h
30.05.2013 11:00 12,5 C 72 % 1001,3 hPa 0,0 l/m 9,4 km/h N 7,6 C 10,7 C 25,4 km/h
30.05.2013 12:00 11,4 C 80 % 1000,7 hPa 1,3 l/m 9,5 km/h N 8,0 C 9,5 C 27,4 km/h
30.05.2013 13:00 10,7 C 83 % 1000,1 hPa 1,8 l/m 12,1 km/h N 7,9 C 7,3 C 35,8 km/h
30.05.2013 14:00 10,3 C 83 % 1000,0 hPa 3,6 l/m 10,7 km/h N 7,6 C 7,6 C 30,2 km/h
30.05.2013 15:00 10,2 C 83 % 999,4 hPa 3,1 l/m 14,3 km/h N 7,4 C 5,7 C 34,6 km/h
30.05.2013 16:00 10,3 C 84 % 998,9 hPa 1,0 l/m 14,3 km/h N 7,7 C 5,8 C 35,4 km/h
30.05.2013 17:00 10,4 C 84 % 998,4 hPa 0,5 l/m 14,1 km/h N 7,7 C 6,0 C 35,8 km/h
30.05.2013 18:00 10,3 C 83 % 998,2 hPa 0,0 l/m 10,4 km/h N 7,6 C 7,7 C 34,2 km/h
30.05.2013 19:00 10,0 C 83 % 998,0 hPa 0,5 l/m 9,0 km/h N 7,3 C 8,3 C 32,2 km/h
30.05.2013 20:00 9,9 C 83 % 998,2 hPa 0,3 l/m 7,4 km/h N 7,1 C 8,9 C 27,0 km/h
30.05.2013 21:00 9,8 C 84 % 998,6 hPa 1,0 l/m 5,6 km/h N 7,2 C 9,6 C 25,3 km/h
30.05.2013 22:00 9,6 C 84 % 998,3 hPa 0,3 l/m 1,6 km/h N 7,1 C 9,6 C 15,3 km/h
30.05.2013 23:00 9,7 C 84 % 998,0 hPa 0,3 l/m 2,9 km/h N 7,1 C 9,7 C 22,9 km/h
31.05.2013 00:00 9,8 C 83 % 997,6 hPa 0,0 l/m 2,5 km/h N 7,1 C 9,8 C 14,5 km/h
31.05.2013 01:00 9,9 C 82 % 998,0 hPa 0,0 l/m 1,6 km/h N 7,0 C 9,9 C 9,6 km/h
31.05.2013 02:00 9,8 C 82 % 998,2 hPa 0,0 l/m 2,8 km/h N 6,8 C 9,8 C 11,7 km/h
31.05.2013 03:00 9,4 C 83 % 997,7 hPa 0,0 l/m 2,3 km/h N 6,7 C 9,4 C 8,0 km/h
31.05.2013 04:00 9,2 C 83 % 997,7 hPa 0,0 l/m 1,4 km/h N 6,5 C 9,2 C 7,0 km/h
31.05.2013 05:00 9,2 C 84 % 997,8 hPa 0,0 l/m 0,7 km/h N 6,6 C 9,2 C 6,0 km/h
31.05.2013 06:00 9,1 C 84 % 997,8 hPa 0,0 l/m 1,5 km/h N 6,5 C 9,1 C 7,2 km/h
31.05.2013 07:00 9,0 C 84 % 998,2 hPa 1,3 l/m 1,3 km/h N 6,5 C 9,0 C 6,0 km/h
31.05.2013 08:00 9,4 C 83 % 998,6 hPa 4,2 l/m 0,6 km/h N 6,6 C 9,4 C 5,6 km/h
31.05.2013 09:00 9,5 C 82 % 998,7 hPa 1,6 l/m 1,8 km/h N 6,6 C 9,5 C 8,0 km/h
31.05.2013 10:00 9,8 C 82 % 998,7 hPa 0,0 l/m 2,5 km/h N 6,9 C 9,8 C 8,4 km/h
31.05.2013 11:00 10,2 C 84 % 999,2 hPa 0,0 l/m 2,2 km/h N 7,6 C 10,2 C 9,3 km/h
31.05.2013 12:00 10,4 C 84 % 999,6 hPa 0,5 l/m 1,8 km/h N 7,8 C 10,4 C 7,6 km/h
31.05.2013 13:00 10,5 C 81 % 1000,1 hPa 0,3 l/m 2,3 km/h N 7,4 C 10,5 C 10,5 km/h
31.05.2013 14:00 10,6 C 78 % 1000,4 hPa 0,0 l/m 2,2 km/h N 6,9 C 10,6 C 8,8 km/h
31.05.2013 15:00 11,1 C 74 % 1000,5 hPa 0,0 l/m 3,1 km/h N 6,7 C 11,1 C 10,5 km/h
31.05.2013 16:00 11,3 C 76 % 1000,7 hPa 0,3 l/m 1,3 km/h N 7,2 C 11,3 C 6,8 km/h
31.05.2013 17:00 11,3 C 79 % 1000,9 hPa 0,3 l/m 0,8 km/h N 7,7 C 11,3 C 5,2 km/h
31.05.2013 18:00 11,0 C 82 % 1001,3 hPa 0,3 l/m 0,1 km/h N 8,0 C 11,0 C 3,2 km/h
31.05.2013 19:00 11,0 C 84 % 1001,5 hPa 0,3 l/m 0,4 km/h N 8,3 C 11,0 C 4,4 km/h
31.05.2013 20:00 10,6 C 84 % 1001,8 hPa 0,0 l/m 0,1 km/h N 8,0 C 10,6 C 2,8 km/h
31.05.2013 21:00 9,4 C 84 % 1002,5 hPa 0,0 l/m 0,0 km/h N 6,9 C 9,4 C 0,0 km/h
31.05.2013 22:00 8,3 C 84 % 1003,3 hPa 0,0 l/m 0,0 km/h N 5,8 C 8,3 C 0,0 km/h
31.05.2013 23:00 8,7 C 83 % 1003,3 hPa 0,0 l/m 0,0 km/h N 6,0 C 8,7 C 0,0 km/h
01.06.2013 00:00 8,6 C 83 % 1003,3 hPa 0,0 l/m 0,0 km/h N 5,9 C 8,6 C 0,0 km/h
01.06.2013 01:00 7,4 C 84 % 1003,8 hPa 0,0 l/m 0,0 km/h N 4,9 C 7,4 C 0,4 km/h
01.06.2013 02:00 6,5 C 83 % 1004,3 hPa 0,0 l/m 0,0 km/h N 3,8 C 6,5 C 0,0 km/h
01.06.2013 03:00 6,4 C 82 % 1004,7 hPa 0,0 l/m 0,2 km/h N 3,4 C 6,4 C 2,4 km/h
01.06.2013 04:00 7,9 C 79 % 1004,5 hPa 0,0 l/m 2,0 km/h N 4,5 C 7,9 C 8,9 km/h
01.06.2013 05:00 8,1 C 80 % 1004,8 hPa 0,0 l/m 1,6 km/h N 4,9 C 8,1 C 8,4 km/h
01.06.2013 06:00 8,4 C 80 % 1005,1 hPa 0,0 l/m 1,5 km/h N 5,1 C 8,4 C 8,1 km/h
01.06.2013 07:00 9,8 C 81 % 1005,0 hPa 0,0 l/m 1,0 km/h N 6,8 C 9,8 C 7,6 km/h
01.06.2013 08:00 12,7 C 79 % 1005,1 hPa 0,0 l/m 4,8 km/h N 9,2 C 12,3 C 17,3 km/h
01.06.2013 09:00 13,5 C 75 % 1005,8 hPa 0,0 l/m 10,0 km/h N 9,1 C 11,5 C 26,1 km/h
01.06.2013 10:00 13,7 C 73 % 1006,1 hPa 0,0 l/m 9,3 km/h N 8,9 C 12,1 C 26,1 km/h
01.06.2013 11:00 15,5 C 68 % 1005,8 hPa 0,0 l/m 12,2 km/h N 9,6 C 12,8 C 30,2 km/h
01.06.2013 12:00 16,1 C 65 % 1006,2 hPa 0,0 l/m 12,9 km/h N 9,6 C 13,3 C 31,8 km/h
01.06.2013 13:00 16,4 C 62 % 1005,9 hPa 0,0 l/m 12,9 km/h N 9,0 C 13,5 C 32,2 km/h
01.06.2013 14:00 17,5 C 56 % 1005,4 hPa 0,0 l/m 12,8 km/h N 8,5 C 14,9 C 33,4 km/h
01.06.2013 15:00 17,5 C 56 % 1005,4 hPa 0,0 l/m 11,5 km/h N 8,7 C 15,3 C 33,0 km/h
01.06.2013 16:00 17,4 C 58 % 1005,2 hPa 0,0 l/m 9,8 km/h N 9,1 C 16,0 C 24,5 km/h
01.06.2013 17:00 17,7 C 56 % 1005,1 hPa 0,0 l/m 9,9 km/h N 8,7 C 16,1 C 27,0 km/h
01.06.2013 18:00 16,2 C 57 % 1005,4 hPa 0,0 l/m 10,4 km/h N 7,7 C 14,3 C 28,6 km/h
01.06.2013 19:00 15,3 C 62 % 1005,3 hPa 0,0 l/m 8,0 km/h N 7,9 C 14,3 C 22,9 km/h
01.06.2013 20:00 14,5 C 65 % 1005,0 hPa 0,0 l/m 4,2 km/h N 8,1 C 14,5 C 15,7 km/h
01.06.2013 21:00 13,8 C 69 % 1005,1 hPa 0,0 l/m 0,7 km/h N 8,1 C 13,8 C 6,8 km/h
01.06.2013 22:00 13,2 C 73 % 1005,0 hPa 0,0 l/m 0,2 km/h N 8,4 C 13,2 C 4,4 km/h
01.06.2013 23:00 12,9 C 79 % 1004,9 hPa 0,3 l/m 0,3 km/h N 9,4 C 12,9 C 4,0 km/h
02.06.2013 00:00 12,4 C 82 % 1004,5 hPa 0,0 l/m 0,0 km/h N 9,4 C 12,4 C 0,8 km/h
02.06.2013 01:00 12,2 C 83 % 1004,4 hPa 0,8 l/m 0,0 km/h N 9,4 C 12,2 C 1,6 km/h
02.06.2013 02:00 11,8 C 83 % 1004,4 hPa 2,1 l/m 0,0 km/h N 9,0 C 11,8 C 0,4 km/h
02.06.2013 03:00 11,5 C 83 % 1004,0 hPa 1,3 l/m 0,0 km/h N 8,7 C 11,5 C 0,8 km/h
02.06.2013 04:00 11,6 C 82 % 1003,9 hPa 0,0 l/m 0,1 km/h N 8,6 C 11,6 C 1,6 km/h
02.06.2013 05:00 11,6 C 81 % 1004,2 hPa 0,5 l/m 0,0 km/h N 8,5 C 11,6 C 0,0 km/h
02.06.2013 06:00 11,7 C 80 % 1004,5 hPa 0,3 l/m 0,0 km/h N 8,4 C 11,7 C 1,2 km/h
02.06.2013 07:00 11,7 C 80 % 1005,2 hPa 2,1 l/m 0,0 km/h N 8,4 C 11,7 C 0,8 km/h
02.06.2013 08:00 11,8 C 79 % 1005,8 hPa 2,9 l/m 0,2 km/h N 8,2 C 11,8 C 3,6 km/h
02.06.2013 09:00 12,1 C 78 % 1006,2 hPa 0,3 l/m 1,5 km/h N 8,4 C 12,1 C 6,8 km/h
02.06.2013 10:00 12,2 C 78 % 1006,7 hPa 4,9 l/m 2,1 km/h N 8,4 C 12,2 C 7,2 km/h
02.06.2013 11:00 12,3 C 77 % 1007,3 hPa 6,2 l/m 2,7 km/h N 8,4 C 12,3 C 9,7 km/h
02.06.2013 12:00 12,3 C 77 % 1007,9 hPa 6,0 l/m 4,6 km/h N 8,4 C 12,3 C 12,1 km/h
02.06.2013 13:00 12,7 C 76 % 1008,3 hPa 11,4 l/m 4,2 km/h N 8,6 C 12,7 C 11,3 km/h
02.06.2013 14:00 13,2 C 76 % 1008,8 hPa 3,4 l/m 2,0 km/h N 9,0 C 13,2 C 8,8 km/h
02.06.2013 15:00 13,3 C 78 % 1009,2 hPa 0,0 l/m 9,8 km/h N 9,4 C 11,3 C 25,8 km/h
02.06.2013 16:00 13,1 C 82 % 1009,8 hPa 0,3 l/m 13,0 km/h N 10,1 C 9,7 C 31,4 km/h
02.06.2013 17:00 12,5 C 84 % 1010,4 hPa 0,3 l/m 14,6 km/h N 9,9 C 8,3 C 34,2 km/h
02.06.2013 18:00 12,0 C 83 % 1011,2 hPa 0,0 l/m 16,2 km/h N 9,2 C 7,1 C 41,5 km/h
02.06.2013 19:00 11,8 C 81 % 1012,3 hPa 0,0 l/m 16,3 km/h N 8,6 C 6,8 C 43,0 km/h
02.06.2013 20:00 11,3 C 81 % 1013,4 hPa 0,0 l/m 17,3 km/h N 8,1 C 5,9 C 40,6 km/h
02.06.2013 21:00 11,1 C 81 % 1014,2 hPa 0,0 l/m 17,0 km/h N 8,0 C 5,7 C 43,8 km/h
02.06.2013 22:00 11,0 C 81 % 1015,2 hPa 0,0 l/m 12,5 km/h N 7,8 C 7,4 C 34,2 km/h
02.06.2013 23:00 10,8 C 81 % 1015,5 hPa 0,0 l/m 10,1 km/h N 7,6 C 8,4 C 33,4 km/h
Min-Datum _ 01.06.13 29.05.13 31.05.13 - 28.05.13 - 01.06.13 30.05.13 28.05.13
_ Min-Zeit 03:15 14:45 00:15 - 03:00 - 03:30 15:15 03:45
Minimum _ 6,1 C 44 % 997,6 hPa - 0,0 km/h - 3,2 C 4,6 C 0,0 km/h
Max-Datum _ 29.05.13 28.05.13 02.06.13 02.06.13 02.06.13 - 29.05.13 29.05.13 02.06.13
_ Max-Zeit 14:45 04:15 23:00 13:30 20:15 - 10:15 14:30 19:00
Maximum _ 24,2 C 84 % 1015,5 hPa 11,4 l/m 20,1 km/h
N
- 13,1 C 22,8 C 53,1 km/h
N
Durchschnitt _ 12,4 C 74 % 1003,9 hPa #65,5 l/m 5,2 km/h N 7,7 C 11,5 C 16,9 km/h